Charter Quote
Worldwide +1-877-727-2538 Call
Select Language Lang
SAFETY RELIABILITY EXPERIENCE

Private Jet Charter Services - Diqing Airport (ZPDQ)

Paramount Business Jets offers private jet charter flights and luxury airliner charters to and from Diqing Airport.

AIRPORT INFORMATION
ICAOZPDQ
IATADIG
LOCATIONShangri-La, China
FACILITY TYPEAIRPORT

At Paramount Business Jets you can hire chartered private jets to and from Diqing Airport with as little as 4 hours of notice. All flights booked via Paramount Business Jets are operated by certified direct air carriers that meet and exceed the FAA part 135 and 121 protocol or a foreign equivalent safety authority. Furthermore, Paramount Business Jets subscribes to ARGUS for their third party safety checks of operators, aircraft, and crews prior each and every flight to and from Diqing Airport and worldwide.

  • Quote a trip using Diqing Airport or call us 24/7 - 365 days a year at +1-877-727-2538.
Questions? Call +1-877-727-2538

METAR Weather Data at Diqing Airport, ZPDQ, DIG

STATIONZPDQ
OBSERVEDSat Dec 24, 02:00 UTC
NOWThu Nov 14, 16:22 UTC
AGE69182:22 hr ago
WINDE at 11 mph
VISIBILITYgreater than 7 miles
CLOUDSclear skies
TEMP34°F (1°C)
WIND CHILL26°F (-3°C)
DEWPT5°F (-15°C)
HUMIDITY29%
BAROMETER1025 hPa (30.27 in Hg)
METARZPDQ 240200Z 10005MPS CAVOK 01/M15 Q1025 NOSIG

Call us on +1-877-727-2538 (24 Hours), Check our Pricing, or Get a Quick Quote.

Find Airports Near any Location

Processing
...